Time;durP1;ratioP1;P1;durP2;ratioP2;P2;SDS_P1;SDS_P2;PMS_P1;PMS_P2;Temp;Humidity;BMP_temperature;BMP_pressure;BME280_temperature;BME280_humidity;BME280_pressure;Samples;Min_cycle;Max_cycle;Signal;HPM_P1;HPM_P2
2023/03/16 00:00:51;;;;;;;25.90;14.70;;;;;;;-141.97;52.83;47551.75;5012637;28;20186;-84
2023/03/16 00:03:19;;;;;;;31.07;15.73;;;;;;;-141.97;53.40;47628.63;5012078;28;20171;-84
2023/03/16 00:05:47;;;;;;;26.67;15.00;;;;;;;-141.97;53.98;47611.34;5011936;28;20163;-86
2023/03/16 00:08:13;;;;;;;23.73;13.77;;;;;;;-141.97;54.25;47567.13;5012041;28;20220;-85
2023/03/16 00:10:38;;;;;;;26.43;13.73;;;;;;;-141.97;54.05;47717.06;5011202;28;20174;-84
2023/03/16 00:13:03;;;;;;;21.73;13.23;;;;;;;-141.97;54.60;47665.16;5012273;28;20611;-85
2023/03/16 00:15:29;;;;;;;23.30;12.93;;;;;;;-141.97;54.57;47603.66;5011844;28;20181;-85
2023/03/16 00:17:54;;;;;;;24.30;12.77;;;;;;;-141.97;54.90;47499.84;5011996;28;20174;-85
2023/03/16 00:20:20;;;;;;;19.30;11.40;;;;;;;-141.97;55.18;47534.44;5011636;28;20326;-85
2023/03/16 00:22:45;;;;;;;19.27;11.03;;;;;;;-141.97;55.54;47611.34;5012162;28;20170;-85
2023/03/16 00:25:13;;;;;;;16.83;10.43;;;;;;;-141.97;55.96;47717.06;5011799;28;20547;-84
2023/03/16 00:27:40;;;;;;;16.97;10.63;;;;;;;-141.97;56.24;47653.63;5012461;28;20646;-86
2023/03/16 00:30:06;;;;;;;15.70;8.97;;;;;;;-141.97;56.48;47607.50;5012600;28;20552;-86
2023/03/16 00:32:34;;;;;;;18.43;10.53;;;;;;;-141.97;57.33;47645.94;5012171;28;20183;-85
2023/03/16 00:35:01;;;;;;;18.90;11.57;;;;;;;-141.97;57.11;47611.34;5011775;28;20167;-85
2023/03/16 00:37:27;;;;;;;16.77;9.47;;;;;;;-141.97;58.07;47613.25;5011752;28;20163;-86
2023/03/16 00:39:57;;;;;;;17.77;10.47;;;;;;;-141.97;58.29;47620.94;5011679;28;20557;-85
2023/03/16 00:42:26;;;;;;;18.10;10.53;;;;;;;-141.97;58.47;47465.25;5011611;28;20241;-85
2023/03/16 00:44:56;;;;;;;15.47;9.60;;;;;;;-141.97;58.80;47599.81;5011419;28;20186;-85
2023/03/16 00:47:22;;;;;;;16.63;9.63;;;;;;;-141.97;59.46;47446.03;5011836;28;20171;-86
2023/03/16 00:49:48;;;;;;;15.93;10.23;;;;;;;-141.97;59.56;47651.69;5011576;28;20674;-85
2023/03/16 00:52:13;;;;;;;16.47;9.93;;;;;;;-141.97;59.56;47622.88;5011536;28;20163;-86
2023/03/16 00:54:41;;;;;;;16.73;10.00;;;;;;;-141.97;60.15;47718.97;5011650;28;20198;-86
2023/03/16 00:57:08;;;;;;;18.13;9.90;;;;;;;-141.97;60.35;47530.59;5010492;28;20179;-85
2023/03/16 00:59:36;;;;;;;18.90;10.47;;;;;;;-141.97;59.80;47446.03;5011886;28;20278;-85
2023/03/16 01:02:03;;;;;;;16.70;10.17;;;;;;;-141.97;60.07;47501.78;5012841;28;20159;-85
2023/03/16 01:04:29;;;;;;;14.77;8.77;;;;;;;-141.97;60.70;47469.09;5015232;28;20207;-86
2023/03/16 01:06:54;;;;;;;16.40;9.60;;;;;;;-141.97;61.05;47663.22;5015057;28;20246;-86
2023/03/16 01:09:20;;;;;;;17.10;9.57;;;;;;;-141.97;62.23;47511.38;5015077;28;20654;-86
2023/03/16 01:11:50;;;;;;;14.37;8.97;;;;;;;-141.97;63.02;47663.22;5014730;28;20178;-85
2023/03/16 01:14:15;;;;;;;15.43;10.10;;;;;;;-141.97;63.43;47638.25;5014984;28;20166;-85
2023/03/16 01:16:44;;;;;;;17.87;10.30;;;;;;;-141.97;63.74;47619.03;5015105;28;20654;-86
2023/03/16 01:19:11;;;;;;;11.47;6.77;;;;;;;-141.97;64.21;47576.75;5015109;28;20640;-86
2023/03/16 01:21:37;;;;;;;14.33;8.30;;;;;;;-141.97;63.72;47534.44;5016238;28;20170;-86
2023/03/16 01:24:04;;;;;;;14.93;9.23;;;;;;;-141.97;64.19;47599.81;5015019;28;20170;-86
2023/03/16 01:26:29;;;;;;;15.63;9.17;;;;;;;-141.97;64.79;47613.25;5014920;28;20178;-86
2023/03/16 01:28:55;;;;;;;14.90;7.87;;;;;;;-141.97;64.57;47613.25;5014740;28;20170;-85
2023/03/16 01:31:20;;;;;;;15.10;7.97;;;;;;;-141.97;64.60;47632.47;5015047;28;20173;-85
2023/03/16 01:33:46;;;;;;;9.37;6.30;;;;;;;-141.97;64.80;47615.19;5014787;28;20162;-85
2023/03/16 01:36:15;;;;;;;11.87;5.33;;;;;;;-141.97;64.18;47580.59;5014787;28;20166;-86
2023/03/16 01:38:41;;;;;;;7.30;4.63;;;;;;;-141.97;64.02;47599.81;5015004;28;20170;-86
2023/03/16 01:41:07;;;;;;;8.53;4.50;;;;;;;-141.97;64.57;47615.19;5014601;28;20257;-86
2023/03/16 01:43:34;;;;;;;9.17;5.23;;;;;;;-141.97;64.76;47653.63;5014328;28;20220;-85
2023/03/16 01:46:05;;;;;;;6.90;4.70;;;;;;;-141.97;64.64;47678.63;5014811;28;20163;-86
2023/03/16 01:48:36;;;;;;;7.97;5.17;;;;;;;-141.97;64.93;47615.19;5009901;28;20237;-85
2023/03/16 01:51:19;;;;;;;5.43;3.13;;;;;;;-141.97;63.69;47496.00;5026842;28;20258;-85
2023/03/16 01:53:48;;;;;;;5.23;3.60;;;;;;;-141.97;63.38;47647.84;4993779;28;20159;-85
2023/03/16 01:56:19;;;;;;;6.87;3.67;;;;;;;-141.97;63.14;47672.84;4995008;28;20167;-85
2023/03/16 01:58:45;;;;;;;4.93;3.10;;;;;;;-141.97;63.42;47680.53;4994805;28;20159;-86
2023/03/16 02:01:12;;;;;;;5.60;3.30;;;;;;;-141.97;63.18;47694.00;4994985;28;20269;-85
2023/03/16 02:03:41;;;;;;;6.83;3.70;;;;;;;-141.97;63.47;47638.25;5026678;28;20176;-85
2023/03/16 02:06:10;;;;;;;4.63;3.57;;;;;;;-141.97;62.65;47599.81;4994510;28;20171;-85
2023/03/16 02:08:37;;;;;;;5.70;3.57;;;;;;;-141.97;62.94;47615.19;4994217;28;20166;-86
2023/03/16 02:11:04;;;;;;;6.33;4.00;;;;;;;-141.97;62.38;47707.44;4994323;28;20575;-85
2023/03/16 02:13:32;;;;;;;5.03;3.30;;;;;;;-141.97;62.20;47611.34;4993796;28;20172;-85
2023/03/16 02:15:58;;;;;;;6.93;3.37;;;;;;;-141.97;62.40;47736.28;4992944;28;20167;-85
2023/03/16 02:18:25;;;;;;;4.50;3.07;;;;;;;-141.97;62.44;47534.44;5009248;28;20254;-85
2023/03/16 02:21:24;;;;;;;5.60;4.07;;;;;;;-141.97;62.19;47655.53;4994182;28;20199;-86
2023/03/16 02:23:50;;;;;;;4.93;3.20;;;;;;;-141.97;62.31;47619.03;4992055;28;20431;-85
2023/03/16 02:26:27;;;;;;;6.60;3.33;;;;;;;-141.97;62.21;47607.50;4975831;28;20429;-85
2023/03/16 02:28:59;;;;;;;6.03;3.43;;;;;;;-141.97;62.16;47661.31;4992017;28;20191;-85
2023/03/16 02:31:24;;;;;;;11.07;5.67;;;;;;;-141.97;62.22;47436.44;4991847;28;20608;-86
2023/03/16 02:33:52;;;;;;;7.27;3.73;;;;;;;-141.97;62.10;47507.53;4991864;28;20198;-85
2023/03/16 02:36:19;;;;;;;4.73;3.40;;;;;;;-141.97;62.39;47711.28;4992258;28;20167;-85
2023/03/16 02:38:45;;;;;;;7.60;3.77;;;;;;;-141.97;62.86;47472.94;4992320;28;20805;-86
2023/03/16 02:41:13;;;;;;;5.07;3.23;;;;;;;-141.97;62.25;47651.69;4992368;28;20276;-86
2023/03/16 02:43:42;;;;;;;5.70;3.63;;;;;;;-141.97;61.88;47607.50;4992244;28;20263;-84
2023/03/16 02:46:08;;;;;;;5.90;3.53;;;;;;;-141.97;61.69;47718.97;4992223;28;20403;-85
2023/03/16 02:48:46;;;;;;;5.33;3.40;;;;;;;-141.97;61.39;47488.31;4997293;28;20951;-85
2023/03/16 02:51:12;;;;;;;5.03;2.97;;;;;;;-141.97;61.31;47494.09;4994205;28;20609;-85
2023/03/16 02:53:37;;;;;;;7.23;4.03;;;;;;;-141.97;61.48;47526.75;4992133;28;20740;-85
2023/03/16 02:56:03;;;;;;;4.57;3.03;;;;;;;-141.97;61.44;47622.88;4992140;28;20178;-85
2023/03/16 02:58:30;;;;;;;6.97;3.17;;;;;;;-141.97;60.91;47632.47;4991293;28;20229;-85
2023/03/16 03:00:56;;;;;;;6.67;3.60;;;;;;;-141.97;60.76;47511.38;4993416;28;20210;-87
2023/03/16 03:03:22;;;;;;;5.03;3.33;;;;;;;-141.97;61.20;47692.06;4996957;28;20410;-83
2023/03/16 03:05:48;;;;;;;5.80;4.00;;;;;;;-141.97;61.45;47615.19;4996526;28;20588;-85
2023/03/16 03:08:14;;;;;;;5.40;3.67;;;;;;;-141.97;61.35;47697.84;4993413;28;20529;-85
2023/03/16 03:10:39;;;;;;;7.10;4.00;;;;;;;-141.97;61.25;47536.38;4993468;28;20164;-86
2023/03/16 03:13:06;;;;;;;6.70;3.57;;;;;;;-141.97;60.97;47457.56;4993340;28;20414;-86
2023/03/16 03:15:32;;;;;;;6.30;3.60;;;;;;;-141.97;60.56;47632.47;4993450;28;20250;-85
2023/03/16 03:17:58;;;;;;;6.13;3.40;;;;;;;-141.97;61.06;47536.38;4993542;28;20437;-85
2023/03/16 03:20:24;;;;;;;7.03;3.97;;;;;;;-141.97;61.19;47734.34;4993347;28;20475;-85
2023/03/16 03:22:51;;;;;;;6.17;3.97;;;;;;;-141.97;61.54;47617.09;4992042;28;20237;-86
2023/03/16 03:25:17;;;;;;;3.97;2.87;;;;;;;-141.97;61.19;47674.78;4992534;28;20187;-86
2023/03/16 03:27:44;;;;;;;8.13;4.10;;;;;;;-141.97;61.02;47630.56;4991834;28;20414;-86
2023/03/16 03:30:12;;;;;;;6.87;3.63;;;;;;;-141.97;61.56;47565.22;4993016;28;20887;-85
2023/03/16 03:32:39;;;;;;;6.33;3.70;;;;;;;-141.97;61.45;47505.63;4992778;28;20415;-86
2023/03/16 03:35:05;;;;;;;5.03;3.33;;;;;;;-141.97;61.67;47661.31;4993080;28;20840;-86
2023/03/16 03:37:31;;;;;;;5.23;2.53;;;;;;;-141.97;61.59;47607.50;4992930;28;20417;-86
2023/03/16 03:39:56;;;;;;;5.00;3.00;;;;;;;-141.97;61.74;47672.84;4993540;28;20541;-86
2023/03/16 03:42:24;;;;;;;5.70;3.90;;;;;;;-141.97;61.56;47634.41;4992251;28;20558;-86
2023/03/16 03:44:51;;;;;;;7.13;3.03;;;;;;;-141.97;62.34;47592.13;5005800;28;20218;-86
2023/03/16 03:47:17;;;;;;;3.70;2.67;;;;;;;-141.97;62.18;47549.84;5007264;28;20405;-85
2023/03/16 03:49:42;;;;;;;5.63;2.80;;;;;;;-141.97;62.67;47542.16;5003537;28;20410;-86
2023/03/16 03:52:08;;;;;;;5.03;2.50;;;;;;;-141.97;62.51;47619.03;4993419;28;20476;-86
2023/03/16 03:54:33;;;;;;;4.90;3.23;;;;;;;-141.97;62.84;47519.06;4993067;28;20186;-86
2023/03/16 03:56:59;;;;;;;5.67;3.37;;;;;;;-141.97;62.65;47694.00;5004997;28;20694;-86
2023/03/16 03:59:24;;;;;;;6.47;3.30;;;;;;;-141.97;62.58;47649.78;5011616;28;20202;-86
2023/03/16 04:01:52;;;;;;;5.17;3.27;;;;;;;-141.97;62.21;47595.97;5012687;28;20167;-86
2023/03/16 04:04:18;;;;;;;4.60;2.83;;;;;;;-141.97;62.07;47651.69;5011651;28;20581;-86
2023/03/16 04:06:44;;;;;;;4.53;2.90;;;;;;;-141.97;62.66;47630.56;5012257;28;20504;-86
2023/03/16 04:09:10;;;;;;;6.67;2.80;;;;;;;-141.97;62.12;47695.91;5012184;28;20417;-86
2023/03/16 04:11:36;;;;;;;4.63;2.93;;;;;;;-141.97;62.43;47636.31;5012048;28;20911;-86
2023/03/16 04:14:02;;;;;;;3.97;3.07;;;;;;;-141.97;62.17;47705.53;5012156;28;20167;-85
2023/03/16 04:16:28;;;;;;;3.90;2.50;;;;;;;-141.97;62.08;47634.41;5012734;28;20154;-85
2023/03/16 04:18:54;;;;;;;3.67;2.33;;;;;;;-141.97;61.81;47582.50;5011419;28;20482;-86
2023/03/16 04:21:21;;;;;;;3.80;1.80;;;;;;;-141.97;62.25;47592.13;5011462;28;20191;-86
2023/03/16 04:23:47;;;;;;;5.20;2.77;;;;;;;-141.97;62.01;47615.19;5012256;28;20929;-86
2023/03/16 04:26:12;;;;;;;4.53;3.00;;;;;;;-141.97;61.90;47659.38;5011452;28;20421;-86
2023/03/16 04:28:38;;;;;;;6.00;3.33;;;;;;;-141.97;62.63;47659.38;5025638;28;20426;-86
2023/03/16 04:31:06;;;;;;;4.17;2.70;;;;;;;-141.97;62.29;47613.25;5007970;28;20166;-86
2023/03/16 04:33:33;;;;;;;3.57;2.40;;;;;;;-141.97;62.45;47659.38;5010294;28;20209;-86
2023/03/16 04:35:58;;;;;;;3.73;2.37;;;;;;;-141.97;61.74;47613.25;5012097;28;20417;-86
2023/03/16 04:38:24;;;;;;;4.40;2.23;;;;;;;-141.97;62.06;47738.19;5012224;28;20894;-86
2023/03/16 04:40:49;;;;;;;5.47;2.70;;;;;;;-141.97;61.78;47694.00;5014980;28;20197;-86
2023/03/16 04:43:15;;;;;;;5.13;3.20;;;;;;;-141.97;62.00;47634.41;5014531;28;20175;-86
2023/03/16 04:45:40;;;;;;;8.37;3.13;;;;;;;-141.97;61.68;47496.00;5014623;28;20583;-85
2023/03/16 04:48:06;;;;;;;4.70;2.27;;;;;;;-141.97;61.15;47440.28;5014873;28;20170;-86
2023/03/16 04:50:31;;;;;;;8.73;5.03;;;;;;;-141.97;60.80;47713.22;5014293;28;20167;-84
2023/03/16 04:52:57;;;;;;;5.47;2.73;;;;;;;-141.97;60.77;47749.72;5014397;28;20170;-85
2023/03/16 04:55:22;;;;;;;3.13;2.17;;;;;;;-141.97;59.96;47565.22;5014656;28;20240;-85
2023/03/16 04:57:48;;;;;;;9.57;2.10;;;;;;;-141.97;60.03;47476.78;5015194;28;20193;-85
2023/03/16 05:00:22;;;;;;;4.67;2.10;;;;;;;-141.97;59.99;47703.59;5013428;28;20185;-85
2023/03/16 05:02:48;;;;;;;6.77;2.63;;;;;;;-141.97;59.48;47619.03;5015916;28;20166;-86
2023/03/16 05:05:14;;;;;;;3.90;1.87;;;;;;;-141.97;58.72;47684.38;5016238;28;20890;-86
2023/03/16 05:07:40;;;;;;;1.97;1.73;;;;;;;-141.97;58.99;47734.34;5015102;28;20416;-86
2023/03/16 05:10:11;;;;;;;3.97;2.77;;;;;;;-141.97;58.88;47676.69;5015663;28;20161;-85
2023/03/16 05:12:36;;;;;;;1.90;1.70;;;;;;;-141.97;58.65;47549.84;5006602;28;20440;-84
2023/03/16 05:15:02;;;;;;;2.27;1.60;;;;;;;-141.97;58.72;47603.66;5015230;28;20516;-86
2023/03/16 05:17:27;;;;;;;5.97;2.67;;;;;;;-141.97;58.80;47467.19;5015370;28;20253;-86
2023/03/16 05:19:53;;;;;;;2.77;1.70;;;;;;;-141.97;58.36;47605.56;5014727;28;21044;-86
2023/03/16 05:22:18;;;;;;;4.60;1.40;;;;;;;-141.97;57.76;47707.44;5015004;28;20189;-86
2023/03/16 05:24:44;;;;;;;2.13;1.30;;;;;;;-141.97;58.10;47649.78;5015130;28;20167;-86
2023/03/16 05:27:09;;;;;;;4.07;1.87;;;;;;;-141.97;57.34;47680.53;5046664;28;20178;-87
2023/03/16 05:29:35;;;;;;;2.73;1.57;;;;;;;-141.97;57.35;47674.78;5014926;28;20549;-85
2023/03/16 05:32:00;;;;;;;5.53;2.33;;;;;;;-141.97;57.07;47695.91;5015418;28;20171;-85
2023/03/16 05:34:26;;;;;;;5.90;2.40;;;;;;;-141.97;57.11;47690.16;5046432;28;20189;-87
2023/03/16 05:36:52;;;;;;;3.53;1.63;;;;;;;-141.97;56.98;47599.81;5046098;28;20178;-86
2023/03/16 05:39:17;;;;;;;4.10;1.10;;;;;;;-141.97;56.73;47672.84;5015001;28;20275;-84
2023/03/16 05:41:43;;;;;;;2.47;1.60;;;;;;;-141.97;56.84;47611.34;5014841;28;20178;-85
2023/03/16 05:44:09;;;;;;;2.23;1.70;;;;;;;-141.97;55.90;47653.63;5014392;28;20175;-85
2023/03/16 05:46:35;;;;;;;1.17;1.00;;;;;;;-141.97;56.28;47686.31;5013210;28;20183;-84
2023/03/16 05:49:00;;;;;;;2.23;1.50;;;;;;;-141.97;56.36;47690.16;5014719;28;20186;-85
2023/03/16 05:51:26;;;;;;;2.93;1.80;;;;;;;-141.97;56.25;47469.09;5019618;28;20171;-85
2023/03/16 05:53:55;;;;;;;2.03;1.27;;;;;;;-141.97;55.76;47519.06;5014327;28;20174;-86
2023/03/16 05:56:24;;;;;;;3.97;1.20;;;;;;;-141.97;56.07;47695.91;5014986;28;20215;-85
2023/03/16 05:58:51;;;;;;;2.67;1.97;;;;;;;-141.97;55.81;47688.22;5015304;28;20527;-85
2023/03/16 06:01:19;;;;;;;6.37;1.80;;;;;;;-141.97;55.52;47647.84;5014979;28;20461;-84
2023/03/16 06:03:45;;;;;;;3.10;1.80;;;;;;;-141.97;55.62;47546.00;5013246;28;20427;-86
2023/03/16 06:06:10;;;;;;;4.33;2.87;;;;;;;-141.97;55.58;47559.44;5013491;28;20810;-86
2023/03/16 06:08:36;;;;;;;94.80;32.63;;;;;;;-141.97;55.82;47738.19;5018426;28;20422;-85
2023/03/16 06:11:03;;;;;;;3.83;2.03;;;;;;;-141.97;55.45;47626.72;5013753;28;20170;-86
2023/03/16 06:13:28;;;;;;;42.97;21.67;;;;;;;-141.97;55.39;47540.22;5012772;28;20175;-86
2023/03/16 06:15:54;;;;;;;4.47;1.90;;;;;;;-141.97;54.92;47461.41;5045697;28;20444;-86
2023/03/16 06:18:20;;;;;;;3.90;1.90;;;;;;;-141.97;54.69;47619.03;5014016;28;20182;-86
2023/03/16 06:20:46;;;;;;;1.80;1.30;;;;;;;-141.97;55.15;47651.69;5012405;28;20234;-86
2023/03/16 06:23:12;;;;;;;1.83;1.37;;;;;;;-141.97;54.68;47519.06;5001686;28;20187;-86
2023/03/16 06:25:38;;;;;;;10.37;4.80;;;;;;;-141.97;54.42;47515.22;5012497;28;20170;-86
2023/03/16 06:28:04;;;;;;;4.17;2.30;;;;;;;-141.97;54.57;47559.44;5013490;28;20440;-86
2023/03/16 06:30:30;;;;;;;8.50;4.00;;;;;;;-141.97;54.36;47505.63;5013777;28;20175;-87
2023/03/16 06:32:55;;;;;;;5.50;2.10;;;;;;;-141.97;54.13;47630.56;5044737;28;20240;-87
2023/03/16 06:35:21;;;;;;;4.53;2.40;;;;;;;-141.97;53.85;47538.28;5045039;28;20182;-86
2023/03/16 06:37:46;;;;;;;2.93;1.40;;;;;;;-141.97;53.79;47651.69;5012011;28;20301;-88
2023/03/16 06:40:12;;;;;;;2.50;1.13;;;;;;;-141.97;53.62;47519.06;5012035;28;20667;-88
2023/03/16 06:42:38;;;;;;;2.70;1.57;;;;;;;-141.97;53.61;47488.31;5012123;28;20167;-86
2023/03/16 06:45:03;;;;;;;4.70;2.50;;;;;;;-141.97;53.30;47684.38;5045538;28;20173;-86
2023/03/16 06:47:29;;;;;;;1.73;1.63;;;;;;;-141.97;53.40;47661.31;5012670;28;20194;-88
2023/03/16 06:49:54;;;;;;;1.70;1.60;;;;;;;-141.97;53.44;47715.13;5005745;28;20236;-87
2023/03/16 06:52:21;;;;;;;1.87;1.47;;;;;;;-141.97;53.48;47624.78;5008966;28;20281;-87
2023/03/16 06:54:46;;;;;;;2.00;1.63;;;;;;;-141.97;53.28;47565.22;4996167;28;20739;-87
2023/03/16 06:57:12;;;;;;;7.20;3.50;;;;;;;-141.97;52.98;47615.19;5045839;28;20531;-88
2023/03/16 06:59:38;;;;;;;8.93;4.50;;;;;;;-141.97;52.39;47680.53;5011253;28;20198;-86
2023/03/16 07:02:03;;;;;;;4.87;2.10;;;;;;;-141.97;52.87;47540.22;5013342;28;20441;-87
2023/03/16 07:04:29;;;;;;;5.87;2.70;;;;;;;-141.97;52.63;47557.53;5012576;28;20176;-87
2023/03/16 07:06:54;;;;;;;5.27;2.97;;;;;;;-141.97;52.89;47530.59;5013083;28;20666;-87
2023/03/16 07:09:20;;;;;;;6.43;3.00;;;;;;;-141.97;52.52;47684.38;5012499;28;20175;-87
2023/03/16 07:11:46;;;;;;;10.83;6.20;;;;;;;-141.97;52.72;47546.00;5011951;28;20293;-87
2023/03/16 07:14:11;;;;;;;3.43;1.50;;;;;;;-141.97;52.37;47718.97;5013146;28;20406;-88
2023/03/16 07:16:37;;;;;;;8.13;2.63;;;;;;;-141.97;52.05;47605.56;5013494;28;20246;-87
2023/03/16 07:19:03;;;;;;;6.37;3.53;;;;;;;-141.97;51.84;47638.25;5013608;28;20253;-87
2023/03/16 07:21:28;;;;;;;5.03;2.50;;;;;;;-141.97;52.04;47547.91;5014947;28;20175;-87
2023/03/16 07:23:54;;;;;;;6.77;2.93;;;;;;;-141.97;52.07;47634.41;5014430;28;20169;-87
2023/03/16 07:26:20;;;;;;;10.07;3.03;;;;;;;-141.97;52.23;47561.38;5012062;28;20562;-87
2023/03/16 07:28:45;;;;;;;4.70;2.50;;;;;;;-141.97;52.25;47580.59;5010561;28;20402;-87
2023/03/16 07:31:11;;;;;;;5.27;2.63;;;;;;;-141.97;52.29;47653.63;5011686;28;20173;-88
2023/03/16 07:33:37;;;;;;;6.13;2.87;;;;;;;-141.97;52.37;47653.63;5011807;28;20173;-87
2023/03/16 07:36:03;;;;;;;6.87;3.43;;;;;;;-141.97;52.45;47722.81;5044365;28;20500;-88
2023/03/16 07:38:31;;;;;;;17.90;6.80;;;;;;;-141.97;52.11;47557.53;5011812;28;20225;-88
2023/03/16 07:40:56;;;;;;;9.87;4.27;;;;;;;-141.97;51.98;47603.66;5012227;28;20453;-87
2023/03/16 07:43:22;;;;;;;8.73;5.07;;;;;;;-141.97;52.00;47649.78;5012080;28;20484;-88
2023/03/16 07:45:51;;;;;;;6.00;3.00;;;;;;;-141.97;51.99;47617.09;5044023;28;20162;-89
2023/03/16 07:48:18;;;;;;;4.57;2.83;;;;;;;-141.97;52.06;47653.63;5010638;28;20173;-88
2023/03/16 07:50:45;;;;;;;4.70;2.13;;;;;;;-141.97;51.63;47607.50;5009156;28;20406;-88
2023/03/16 07:53:11;;;;;;;13.63;3.67;;;;;;;-141.97;51.75;47605.56;5010749;28;20398;-88
2023/03/16 07:55:37;;;;;;;9.97;6.00;;;;;;;-141.97;51.19;47617.09;5012404;28;20955;-88
2023/03/16 07:58:04;;;;;;;9.10;5.20;;;;;;;-141.97;50.75;47578.66;5010619;28;20607;-88
2023/03/16 08:00:30;;;;;;;12.57;3.87;;;;;;;-141.97;51.05;47507.53;5010799;28;20445;-87
2023/03/16 08:02:56;;;;;;;13.03;5.17;;;;;;;-141.97;50.81;47726.66;5043889;28;20406;-87
2023/03/16 08:05:22;;;;;;;14.50;5.60;;;;;;;-141.97;50.20;47722.81;5010816;28;20194;-88
2023/03/16 08:07:47;;;;;;;21.87;8.87;;;;;;;-141.97;50.43;47455.66;5010814;28;20174;-87
2023/03/16 08:10:13;;;;;;;2.40;1.67;;;;;;;-141.97;50.56;47711.28;5009962;28;20555;-86
2023/03/16 08:12:38;;;;;;;3.10;1.80;;;;;;;-141.97;50.15;47665.16;5010323;28;20686;-86
2023/03/16 08:15:04;;;;;;;2.33;1.80;;;;;;;-141.97;49.78;47557.53;5011763;28;20691;-86
2023/03/16 08:17:30;;;;;;;6.30;2.20;;;;;;;-141.97;49.86;47676.69;5010915;28;20213;-85
2023/03/16 08:19:56;;;;;;;4.37;1.90;;;;;;;-141.97;49.94;47611.34;5014428;28;20489;-82
2023/03/16 08:22:23;;;;;;;2.77;1.50;;;;;;;-141.97;49.48;47630.56;5018787;28;20217;-85
2023/03/16 08:24:49;;;;;;;2.83;1.60;;;;;;;-141.97;49.56;47424.91;5011733;28;20440;-86
2023/03/16 08:27:14;;;;;;;1.60;1.37;;;;;;;-141.97;49.19;47726.66;5012084;28;20175;-86
2023/03/16 08:29:40;;;;;;;5.50;2.33;;;;;;;-141.97;49.33;47534.44;5010589;28;20430;-86
2023/03/16 08:32:06;;;;;;;6.77;2.00;;;;;;;-141.97;49.26;47603.66;5010389;28;20624;-86
2023/03/16 08:34:31;;;;;;;3.60;1.80;;;;;;;-141.97;48.95;47617.09;5012368;28;20167;-85
2023/03/16 08:36:58;;;;;;;3.73;1.40;;;;;;;-141.97;48.62;47515.22;5010452;28;20232;-85
2023/03/16 08:39:24;;;;;;;4.37;2.70;;;;;;;-141.97;48.82;47699.75;5011928;28;20186;-85
2023/03/16 08:41:49;;;;;;;3.10;1.80;;;;;;;-141.97;48.86;47642.09;5011167;28;20452;-85
2023/03/16 08:44:16;;;;;;;2.40;1.57;;;;;;;-141.97;48.99;47499.84;5012241;28;20163;-86
2023/03/16 08:46:41;;;;;;;3.70;2.10;;;;;;;-141.97;48.29;47653.63;5044048;28;20655;-86
2023/03/16 08:49:07;;;;;;;9.23;4.40;;;;;;;-141.97;48.40;47688.22;5014860;28;20409;-86
2023/03/16 08:51:32;;;;;;;4.30;3.10;;;;;;;-141.97;47.84;47680.53;5013604;28;20615;-86
2023/03/16 08:53:58;;;;;;;2.20;1.67;;;;;;;-141.97;47.92;47561.38;5016278;28;20163;-87
2023/03/16 08:56:24;;;;;;;3.23;1.83;;;;;;;-141.97;47.92;47544.06;5018177;28;20155;-87
2023/03/16 08:58:50;;;;;;;1.70;1.40;;;;;;;-141.97;47.60;47718.97;5013906;28;20265;-87
2023/03/16 09:01:19;;;;;;;5.07;2.83;;;;;;;-141.97;47.29;47645.94;5012071;28;20198;-86
2023/03/16 09:03:45;;;;;;;12.40;5.37;;;;;;;-141.97;47.23;47709.38;5011421;28;20194;-87
2023/03/16 09:06:13;;;;;;;5.33;3.37;;;;;;;-141.97;47.28;47488.31;5011748;28;20225;-88
2023/03/16 09:08:40;;;;;;;12.40;6.13;;;;;;;-141.97;46.90;47542.16;5010690;28;20174;-86
2023/03/16 09:11:08;;;;;;;8.10;3.47;;;;;;;-141.97;46.53;47559.44;5010520;28;20253;-86
2023/03/16 09:13:34;;;;;;;6.43;3.07;;;;;;;-141.97;46.17;47684.38;5010282;28;20199;-85
2023/03/16 09:16:00;;;;;;;4.93;2.23;;;;;;;-141.97;46.28;47717.06;5010481;28;20174;-86
2023/03/16 09:18:26;;;;;;;3.33;2.33;;;;;;;-141.97;46.03;47509.47;5011811;28;20194;-87
2023/03/16 09:21:00;;;;;;;5.57;3.73;;;;;;;-141.97;45.79;47751.66;5010764;28;20206;-85
2023/03/16 09:23:26;;;;;;;3.30;2.10;;;;;;;-141.97;45.43;47607.50;5012854;28;20183;-86
2023/03/16 09:25:52;;;;;;;4.90;2.13;;;;;;;-141.97;45.48;47626.72;5015675;28;20166;-86
2023/03/16 09:28:18;;;;;;;4.37;2.70;;;;;;;-141.97;45.14;47703.59;5014419;28;20179;-86
2023/03/16 09:30:44;;;;;;;4.63;1.50;;;;;;;-141.97;44.97;47432.59;5014263;28;20649;-87
2023/03/16 09:33:10;;;;;;;6.37;4.27;;;;;;;-141.97;45.33;47653.63;5015830;28;20207;-87
2023/03/16 09:35:37;;;;;;;4.00;2.70;;;;;;;-141.97;44.43;47661.31;5014578;28;20175;-85
2023/03/16 09:38:03;;;;;;;2.70;1.80;;;;;;;-141.97;44.17;47501.78;5012313;28;20235;-88
2023/03/16 09:40:30;;;;;;;8.70;2.97;;;;;;;-141.97;44.39;47634.41;5013507;28;20199;-86
2023/03/16 09:43:17;;;;;;;3.30;2.40;;;;;;;-141.97;44.43;47669.00;5047011;28;20173;-86
2023/03/16 09:46:01;;;;;;;3.50;1.60;;;;;;;-141.97;44.68;47622.88;4995802;28;20242;-87
2023/03/16 09:48:30;;;;;;;1.43;1.30;;;;;;;-141.97;44.34;47728.59;5040998;28;20273;-86
2023/03/16 09:50:57;;;;;;;1.30;1.20;;;;;;;-141.97;44.69;47642.09;5014003;28;20174;-85
2023/03/16 09:53:30;;;;;;;2.40;1.50;;;;;;;-141.97;44.55;47730.50;5015652;28;20190;-87
2023/03/16 09:56:13;;;;;;;4.27;1.90;;;;;;;-141.97;43.64;47607.50;5045947;28;20183;-87
2023/03/16 09:58:39;;;;;;;3.57;1.80;;;;;;;-141.97;44.13;47619.03;5013700;28;20179;-86
2023/03/16 10:01:19;;;;;;;4.00;1.67;;;;;;;-141.97;44.40;47603.66;5013505;28;20273;-87
2023/03/16 10:04:07;;;;;;;2.70;2.07;;;;;;;-141.97;44.18;47642.09;5046747;28;20173;-85
2023/03/16 10:06:37;;;;;;;1.60;1.30;;;;;;;-141.97;43.38;47645.94;5045401;28;20217;-85
2023/03/16 10:09:31;;;;;;;2.17;1.60;;;;;;;-141.97;43.61;47542.16;5045827;28;20257;-86
2023/03/16 10:12:01;;;;;;;4.30;2.17;;;;;;;-141.97;43.29;47678.63;5013507;28;20186;-85
2023/03/16 10:14:51;;;;;;;2.57;1.53;;;;;;;-141.97;43.58;47626.72;5012815;28;20670;-86
2023/03/16 10:17:28;;;;;;;2.80;1.40;;;;;;;-141.97;43.15;47607.50;5014427;28;20557;-86
2023/03/16 10:20:16;;;;;;;5.73;2.13;;;;;;;-141.97;43.00;47605.56;5014581;28;20685;-86
2023/03/16 10:22:44;;;;;;;2.23;1.50;;;;;;;-141.97;42.45;47630.56;5002499;28;20628;-86
2023/03/16 10:25:24;;;;;;;4.30;1.63;;;;;;;-141.97;42.92;47667.06;4995188;28;20244;-86
2023/03/16 10:27:50;;;;;;;1.90;1.60;;;;;;;-141.97;42.63;47521.00;4994871;28;20328;-85
2023/03/16 10:30:27;;;;;;;4.20;2.77;;;;;;;-141.97;42.18;47555.59;4995267;28;20170;-83
2023/03/16 10:32:53;;;;;;;6.60;3.93;;;;;;;-141.97;42.54;47522.91;4995228;28;20209;-85
2023/03/16 10:35:43;;;;;;;2.00;1.70;;;;;;;-141.97;42.08;47638.25;5027938;28;20659;-84
2023/03/16 10:38:42;;;;;;;4.53;2.23;;;;;;;-141.97;42.36;47645.94;4994781;28;20277;-86
2023/03/16 10:41:19;;;;;;;6.97;2.50;;;;;;;-141.97;41.46;47611.34;4995115;28;20248;-87
2023/03/16 10:43:48;;;;;;;2.17;1.60;;;;;;;-141.97;42.11;47603.66;4994813;28;20187;-85
2023/03/16 10:46:13;;;;;;;5.43;2.63;;;;;;;-141.97;41.99;47697.84;5028350;28;20179;-85
2023/03/16 10:48:39;;;;;;;3.20;2.03;;;;;;;-141.97;42.37;47546.00;4995231;28;20562;-85
2023/03/16 10:51:12;;;;;;;3.03;1.70;;;;;;;-141.97;42.32;47740.13;4996186;28;20166;-88
2023/03/16 10:53:43;;;;;;;2.50;1.83;;;;;;;-141.97;42.09;47611.34;5013394;28;20210;-88
2023/03/16 10:56:12;;;;;;;3.07;2.10;;;;;;;-141.97;42.09;47653.63;5012524;28;20190;-88
2023/03/16 10:58:41;;;;;;;2.50;1.70;;;;;;;-141.97;41.96;47595.97;5013964;28;20182;-87
2023/03/16 11:01:27;;;;;;;1.90;1.50;;;;;;;-141.97;42.18;47617.09;5025538;28;20194;-83
2023/03/16 11:03:56;;;;;;;5.63;2.70;;;;;;;-141.97;41.94;47609.41;5017564;28;20162;-86
2023/03/16 11:06:30;;;;;;;5.27;2.70;;;;;;;-141.97;42.12;47676.69;5012855;28;20163;-87
2023/03/16 11:09:31;;;;;;;4.93;2.47;;;;;;;-141.97;41.76;47715.13;5013233;28;20610;-85
2023/03/16 11:11:58;;;;;;;4.33;2.27;;;;;;;-141.97;42.26;47699.75;4974907;28;20344;-88
2023/03/16 11:14:27;;;;;;;5.03;2.77;;;;;;;-141.97;42.21;47607.50;4974576;28;20183;-87
2023/03/16 11:17:11;;;;;;;4.30;2.90;;;;;;;-141.97;42.76;47499.84;4992369;28;20195;-87